Time;durP1;ratioP1;P1;durP2;ratioP2;P2;SDS_P1;SDS_P2;PMS_P1;PMS_P2;Temp;Humidity;BMP_temperature;BMP_pressure;BME280_temperature;BME280_humidity;BME280_pressure;Samples;Min_cycle;Max_cycle;Signal;HPM_P1;HPM_P2
2022/10/23 00:01:11;;;;;;;13.00;8.13;;;;;;;13.75;73.89;100419.19;5019548;27;101568;-81
2022/10/23 00:03:36;;;;;;;11.02;7.65;;;;;;;13.86;73.67;100439.81;5021141;27;101522;-80
2022/10/23 00:06:03;;;;;;;14.05;8.25;;;;;;;13.71;73.23;100408.88;5037032;27;96699;-81
2022/10/23 00:08:29;;;;;;;14.43;8.15;;;;;;;13.80;73.39;100437.47;5038572;27;96734;-80
2022/10/23 00:10:54;;;;;;;10.82;7.70;;;;;;;13.68;73.27;100414.28;5029694;27;101496;-81
2022/10/23 00:13:20;;;;;;;9.68;7.72;;;;;;;13.65;73.21;100411.78;5036149;27;98348;-80
2022/10/23 00:15:46;;;;;;;9.95;8.02;;;;;;;13.72;73.11;100419.34;5055198;27;96878;-80
2022/10/23 00:18:11;;;;;;;13.80;7.28;;;;;;;13.81;73.67;100425.97;5003593;27;97120;-80
2022/10/23 00:20:37;;;;;;;11.70;7.55;;;;;;;13.77;73.18;100422.63;5020441;27;98298;-80
2022/10/23 00:23:02;;;;;;;11.98;7.68;;;;;;;13.66;72.76;100409.06;5036977;27;97747;-80
2022/10/23 00:25:28;;;;;;;10.40;7.15;;;;;;;13.78;73.16;100428.75;5037602;27;96842;-80
2022/10/23 00:27:53;;;;;;;9.05;7.18;;;;;;;13.63;73.00;100409.22;5002438;27;97958;-80
2022/10/23 00:30:19;;;;;;;10.68;7.13;;;;;;;13.73;72.90;100428.09;5018821;27;101383;-81
2022/10/23 00:32:44;;;;;;;10.25;8.13;;;;;;;13.76;73.11;100426.22;5020174;27;101445;-80
2022/10/23 00:35:10;;;;;;;10.43;6.85;;;;;;;13.64;72.78;100408.28;5019877;27;96824;-80
2022/10/23 00:37:35;;;;;;;9.57;6.90;;;;;;;13.76;72.75;100431.47;5019160;27;96945;-82
2022/10/23 00:40:01;;;;;;;10.10;7.15;;;;;;;13.76;72.88;100430.63;5036426;27;101392;-80
2022/10/23 00:42:27;;;;;;;7.93;6.18;;;;;;;13.76;72.96;100434.13;5019338;27;100852;-81
2022/10/23 00:45:30;;;;;;;10.57;7.40;;;;;;;13.78;72.38;100429.59;5027284;27;96831;-80
2022/10/23 00:47:56;;;;;;;10.80;6.78;;;;;;;13.78;72.41;100429.59;5036474;27;97100;-80
2022/10/23 00:50:23;;;;;;;13.63;7.72;;;;;;;13.68;72.08;100406.38;5052560;27;101816;-80
2022/10/23 00:52:51;;;;;;;9.55;7.15;;;;;;;13.61;72.39;100397.88;5053666;27;101451;-81
2022/10/23 00:55:18;;;;;;;10.48;6.75;;;;;;;13.75;72.13;100431.53;5019309;27;96943;-80
2022/10/23 00:57:44;;;;;;;9.20;7.00;;;;;;;13.65;72.24;100419.72;5037635;27;96776;-80
2022/10/23 01:00:17;;;;;;;9.40;7.40;;;;;;;13.71;72.31;100432.63;5034008;27;98338;-80
2022/10/23 01:02:43;;;;;;;12.10;7.45;;;;;;;13.66;72.15;100426.69;5022027;27;98522;-81
2022/10/23 01:05:09;;;;;;;10.20;7.35;;;;;;;13.67;72.41;100431.03;5018390;27;97255;-80
2022/10/23 01:07:42;;;;;;;8.95;7.63;;;;;;;13.72;72.14;100437.81;5054816;27;96818;-80
2022/10/23 01:10:07;;;;;;;10.10;7.10;;;;;;;13.66;72.01;100434.59;5018543;27;101399;-80
2022/10/23 01:12:43;;;;;;;11.48;7.40;;;;;;;13.66;71.92;100447.78;5035633;27;101153;-80
2022/10/23 01:15:24;;;;;;;9.15;7.32;;;;;;;13.64;71.67;100442.56;5019280;27;96741;-81
2022/10/23 01:18:05;;;;;;;13.10;6.83;;;;;;;13.64;72.07;100442.56;5052313;27;97723;-82
2022/10/23 01:20:43;;;;;;;10.95;7.07;;;;;;;13.57;71.68;100434.06;5035186;27;101325;-80
2022/10/23 01:23:28;;;;;;;8.15;6.32;;;;;;;13.61;71.68;100447.13;5018868;27;101476;-81
2022/10/23 01:25:56;;;;;;;9.30;6.95;;;;;;;13.57;71.74;100447.25;5036089;27;98587;-80
2022/10/23 01:28:48;;;;;;;11.13;6.95;;;;;;;13.53;71.74;100443.06;5036271;27;96844;-80
2022/10/23 01:31:17;;;;;;;9.27;6.40;;;;;;;13.43;72.16;100427.72;5018128;27;101521;-80
2022/10/23 01:33:50;;;;;;;7.90;6.05;;;;;;;13.54;72.08;100444.78;5019551;27;100904;-80
2022/10/23 01:36:25;;;;;;;9.25;6.45;;;;;;;13.51;71.71;100434.34;5020142;27;96889;-81
2022/10/23 01:39:05;;;;;;;9.65;6.80;;;;;;;13.46;71.88;100424.94;5019535;27;96890;-79
2022/10/23 01:41:48;;;;;;;7.78;6.28;;;;;;;13.54;71.94;100446.56;5035449;27;101714;-80
2022/10/23 01:44:24;;;;;;;9.82;6.72;;;;;;;13.51;71.50;100458.09;5019074;27;101833;-80
2022/10/23 01:46:51;;;;;;;12.10;7.13;;;;;;;13.47;71.67;100453.88;5018852;27;96831;-80
2022/10/23 01:49:18;;;;;;;11.52;6.95;;;;;;;13.48;71.86;100460.00;5002820;27;96848;-81
2022/10/23 01:51:53;;;;;;;10.57;7.03;;;;;;;13.31;71.62;100424.69;5019142;27;101170;-80
2022/10/23 01:54:21;;;;;;;9.85;6.53;;;;;;;13.34;72.01;100442.16;5023923;27;101507;-80
2022/10/23 01:56:47;;;;;;;12.02;7.97;;;;;;;13.47;71.79;100459.16;5020074;27;96739;-80
2022/10/23 01:59:18;;;;;;;9.25;6.90;;;;;;;13.42;71.97;100460.28;5035467;27;96853;-80
2022/10/23 02:01:45;;;;;;;12.63;7.05;;;;;;;13.38;71.91;100453.41;5031193;28;101809;-80
2022/10/23 02:04:14;;;;;;;13.23;6.53;;;;;;;13.34;71.69;100453.53;5015259;28;101899;-80
2022/10/23 02:06:40;;;;;;;10.88;6.72;;;;;;;13.30;72.00;100459.88;5015918;28;96811;-80
2022/10/23 02:09:06;;;;;;;8.68;6.65;;;;;;;13.32;71.63;100467.72;5032944;28;96818;-80
2022/10/23 02:11:37;;;;;;;7.38;5.82;;;;;;;13.32;71.75;100465.06;5009334;28;98079;-81
2022/10/23 02:14:08;;;;;;;10.93;6.25;;;;;;;13.24;71.70;100448.72;5011917;28;101339;-80
2022/10/23 02:16:46;;;;;;;8.48;6.47;;;;;;;13.13;71.49;100443.91;5022721;28;96884;-80
2022/10/23 02:19:18;;;;;;;9.93;6.75;;;;;;;13.23;71.55;100468.06;5032462;28;96794;-81
2022/10/23 02:22:02;;;;;;;;;;;;;;;13.18;71.40;100473.56;5032129;27;98023;-80
2022/10/23 02:24:35;;;;;;;8.88;6.25;;;;;;;13.20;71.75;100465.56;5014230;28;100890;-81
2022/10/23 02:27:15;;;;;;;8.73;5.95;;;;;;;13.09;71.41;100448.47;5031308;27;96854;-80
2022/10/23 02:30:03;;;;;;;9.73;6.82;;;;;;;13.06;71.46;100443.31;5013787;27;97204;-80
2022/10/23 02:32:29;;;;;;;9.65;6.13;;;;;;;13.17;71.34;100463.06;4995466;28;102119;-81
2022/10/23 02:34:55;;;;;;;10.00;6.50;;;;;;;13.14;72.09;100469.31;5048280;27;101186;-80
2022/10/23 02:37:21;;;;;;;7.35;6.07;;;;;;;13.16;71.69;100461.38;5015278;28;96730;-80
2022/10/23 02:39:48;;;;;;;10.77;7.15;;;;;;;13.13;71.71;100463.19;5031699;28;96993;-80
2022/10/23 02:42:21;;;;;;;8.18;5.93;;;;;;;13.21;71.67;100473.44;5032147;27;101319;-80
2022/10/23 02:45:05;;;;;;;8.45;6.43;;;;;;;13.22;72.00;100469.00;5013708;28;101461;-80
2022/10/23 02:47:36;;;;;;;9.20;6.80;;;;;;;13.11;71.89;100451.84;5016553;28;96706;-80
2022/10/23 02:50:06;;;;;;;9.65;6.45;;;;;;;13.22;71.77;100469.00;5031165;28;97042;-80
2022/10/23 02:52:58;;;;;;;8.27;5.78;;;;;;;13.21;72.41;100470.78;5014807;28;101489;-81
2022/10/23 02:55:42;;;;;;;9.85;6.13;;;;;;;13.24;72.41;100470.66;5014107;28;101170;-80
2022/10/23 02:58:12;;;;;;;7.50;5.65;;;;;;;13.28;72.31;100471.41;5015157;28;96795;-80
2022/10/23 03:00:46;;;;;;;9.65;5.80;;;;;;;13.29;72.57;100458.19;5015019;28;96878;-80
2022/10/23 03:03:16;;;;;;;8.20;5.90;;;;;;;13.25;72.20;100466.25;5006244;28;100792;-82
2022/10/23 03:05:43;;;;;;;7.50;5.75;;;;;;;13.32;72.36;100479.13;5012674;28;101969;-80
2022/10/23 03:08:12;;;;;;;7.13;5.43;;;;;;;13.27;72.42;100470.56;5031815;28;96747;-80
2022/10/23 03:10:38;;;;;;;9.98;6.05;;;;;;;13.27;72.28;100470.56;5047930;27;97448;-80
2022/10/23 03:13:05;;;;;;;7.68;5.43;;;;;;;13.22;72.55;100461.09;5014235;28;101427;-80
2022/10/23 03:15:38;;;;;;;10.98;6.57;;;;;;;13.17;72.44;100455.16;5015382;28;101469;-80
2022/10/23 03:18:05;;;;;;;8.88;6.05;;;;;;;13.20;72.54;100460.31;5031949;27;96764;-81
2022/10/23 03:20:30;;;;;;;9.00;6.75;;;;;;;13.23;72.48;100468.94;5027071;28;96935;-81
2022/10/23 03:22:56;;;;;;;10.38;6.28;;;;;;;13.27;72.87;100464.44;5013614;28;102045;-80
2022/10/23 03:25:22;;;;;;;9.75;6.60;;;;;;;13.23;72.78;100450.47;5017038;28;101698;-80
2022/10/23 03:27:47;;;;;;;10.40;6.18;;;;;;;13.31;72.58;100461.59;5051906;27;96897;-80
2022/10/23 03:30:15;;;;;;;8.07;6.43;;;;;;;13.32;73.01;100475.63;5034945;28;96881;-83
2022/10/23 03:32:40;;;;;;;7.97;6.30;;;;;;;13.33;73.35;100477.34;5001781;28;101407;-80
2022/10/23 03:35:06;;;;;;;9.13;5.95;;;;;;;13.37;73.29;100476.28;5032326;28;101448;-81
2022/10/23 03:37:32;;;;;;;8.68;6.03;;;;;;;13.35;73.05;100481.66;5018967;28;96987;-80
2022/10/23 03:39:59;;;;;;;9.18;6.63;;;;;;;13.35;73.43;100473.72;5033614;28;96925;-79
2022/10/23 03:42:25;;;;;;;9.10;6.28;;;;;;;13.31;73.62;100471.28;5033769;28;101827;-80
2022/10/23 03:44:50;;;;;;;10.52;6.32;;;;;;;13.25;73.33;100463.59;5032088;28;98164;-79
2022/10/23 03:47:17;;;;;;;9.32;6.25;;;;;;;13.44;72.99;100482.16;5014558;28;96908;-81
2022/10/23 03:49:43;;;;;;;9.52;6.40;;;;;;;13.38;73.19;100483.28;5031422;28;97125;-80
2022/10/23 03:52:09;;;;;;;12.05;6.07;;;;;;;13.27;73.18;100464.44;5013543;28;101749;-81
2022/10/23 03:54:34;;;;;;;7.75;6.10;;;;;;;13.39;73.38;100478.88;5030682;27;101446;-81
2022/10/23 03:57:00;;;;;;;8.48;6.05;;;;;;;13.38;73.46;100469.22;5033859;28;96972;-80
2022/10/23 03:59:27;;;;;;;7.72;6.30;;;;;;;13.39;73.44;100482.38;5016936;28;97075;-80
2022/10/23 04:01:52;;;;;;;10.38;6.50;;;;;;;13.35;73.04;100464.94;5016694;28;101559;-80
2022/10/23 04:04:18;;;;;;;5.88;5.28;;;;;;;13.32;73.27;100458.06;5016849;28;101657;-81
2022/10/23 04:06:44;;;;;;;8.57;5.80;;;;;;;13.35;73.36;100465.81;5051648;27;96799;-79
2022/10/23 04:09:10;;;;;;;8.93;5.72;;;;;;;13.34;73.44;100458.81;5030844;27;97016;-79
2022/10/23 04:11:36;;;;;;;11.43;6.32;;;;;;;13.15;73.67;100426.25;5039649;27;100994;-79
2022/10/23 04:14:02;;;;;;;9.30;6.30;;;;;;;13.20;73.15;100436.56;5049723;27;102068;-79
2022/10/23 04:16:27;;;;;;;8.07;5.60;;;;;;;13.23;73.69;100441.72;5049964;27;96754;-80
2022/10/23 04:18:53;;;;;;;8.65;6.00;;;;;;;13.22;73.60;100440.03;5034609;28;97710;-80
2022/10/23 04:21:19;;;;;;;10.20;6.50;;;;;;;13.31;73.37;100458.09;5000302;28;101240;-83
2022/10/23 04:23:44;;;;;;;8.70;5.90;;;;;;;13.20;73.17;100433.94;5034059;28;101888;-79
2022/10/23 04:26:12;;;;;;;8.15;5.82;;;;;;;13.34;73.16;100463.25;5032425;28;97094;-79
2022/10/23 04:28:38;;;;;;;9.02;5.18;;;;;;;13.33;73.06;100456.25;5046086;27;96996;-80
2022/10/23 04:31:04;;;;;;;6.38;5.47;;;;;;;13.35;73.00;100451.75;5015463;28;101066;-80
2022/10/23 04:33:29;;;;;;;7.75;6.00;;;;;;;13.29;72.87;100439.72;5033077;28;101711;-80
2022/10/23 04:35:55;;;;;;;7.80;5.43;;;;;;;13.31;72.64;100455.47;5049324;27;98437;-79
2022/10/23 04:38:20;;;;;;;11.93;6.15;;;;;;;13.21;73.13;100435.69;5016512;28;96927;-82
2022/10/23 04:40:46;;;;;;;7.38;5.68;;;;;;;13.17;72.87;100449.88;5016323;28;100963;-80
2022/10/23 04:43:18;;;;;;;7.95;5.70;;;;;;;13.22;73.03;100469.00;5018099;28;100870;-80
2022/10/23 04:45:43;;;;;;;9.23;6.10;;;;;;;13.23;73.03;100468.94;5014158;28;96979;-80
2022/10/23 04:48:09;;;;;;;8.07;5.50;;;;;;;13.17;73.18;100458.66;5033149;28;97092;-80
2022/10/23 04:50:58;;;;;;;8.57;5.93;;;;;;;13.22;73.07;100469.88;5044536;27;97159;-80
2022/10/23 04:53:48;;;;;;;7.00;5.50;;;;;;;13.13;73.04;100463.19;5036767;27;100080;-79
2022/10/23 04:56:40;;;;;;;9.25;5.68;;;;;;;13.20;73.02;100484.88;5024842;27;97136;-80
2022/10/23 04:59:09;;;;;;;6.75;5.20;;;;;;;13.11;73.40;100466.81;5033885;27;96939;-80
2022/10/23 05:01:37;;;;;;;7.47;5.90;;;;;;;13.12;72.91;100474.69;5043774;27;101412;-80
2022/10/23 05:04:05;;;;;;;9.23;5.70;;;;;;;13.10;73.03;100471.25;5032292;28;101444;-79
2022/10/23 05:06:38;;;;;;;7.63;5.25;;;;;;;13.19;72.97;100482.31;5047733;27;97159;-80
2022/10/23 05:09:21;;;;;;;8.07;5.60;;;;;;;13.05;72.76;100461.81;5036038;27;96734;-80
2022/10/23 05:12:10;;;;;;;7.72;5.88;;;;;;;13.20;72.86;100487.50;5033084;28;101622;-80
2022/10/23 05:14:35;;;;;;;7.85;5.55;;;;;;;13.15;72.62;100484.25;4998880;28;101909;-79
2022/10/23 05:17:08;;;;;;;6.50;5.25;;;;;;;13.18;72.67;100494.66;5015830;28;96983;-80
2022/10/23 05:19:39;;;;;;;9.50;5.55;;;;;;;13.19;72.77;100496.34;5010388;28;97306;-80
2022/10/23 05:22:05;;;;;;;7.55;5.57;;;;;;;13.08;72.65;100488.03;5015615;28;101257;-80
2022/10/23 05:24:46;;;;;;;6.55;5.40;;;;;;;13.11;72.59;100499.28;5046498;27;101284;-79
2022/10/23 05:27:11;;;;;;;6.68;5.65;;;;;;;12.96;72.62;100476.22;5012901;28;96643;-82
2022/10/23 05:29:39;;;;;;;7.13;4.95;;;;;;;13.05;72.64;100496.91;5032628;27;96914;-80
2022/10/23 05:32:06;;;;;;;9.18;5.30;;;;;;;13.04;72.74;100503.13;4999747;28;101970;-79
2022/10/23 05:34:34;;;;;;;7.75;5.38;;;;;;;13.03;72.80;100496.16;5049328;27;100831;-80
2022/10/23 05:37:01;;;;;;;7.78;5.20;;;;;;;13.11;72.26;100504.56;5009594;28;96935;-80
2022/10/23 05:39:35;;;;;;;9.02;5.05;;;;;;;13.10;72.59;100494.09;5015768;28;96817;-79
2022/10/23 05:42:06;;;;;;;6.80;5.57;;;;;;;13.12;73.48;100498.41;5032219;28;101515;-80
2022/10/23 05:44:32;;;;;;;8.50;6.20;;;;;;;13.13;73.38;100488.72;5031982;28;98425;-80
2022/10/23 05:47:16;;;;;;;7.40;5.60;;;;;;;13.15;72.90;100497.41;5044868;27;98311;-79
2022/10/23 05:50:03;;;;;;;7.90;5.72;;;;;;;13.12;73.00;100506.31;5032578;28;97101;-79
2022/10/23 05:52:48;;;;;;;7.28;5.57;;;;;;;13.20;72.45;100499.84;5028361;27;101779;-79
2022/10/23 05:55:33;;;;;;;11.43;6.65;;;;;;;13.12;72.71;100503.66;5050321;27;101634;-80
2022/10/23 05:58:16;;;;;;;6.97;5.45;;;;;;;13.04;72.61;100489.94;5035086;27;97216;-79
2022/10/23 06:01:09;;;;;;;11.18;6.20;;;;;;;13.04;72.56;100484.69;5032620;28;96862;-79
2022/10/23 06:03:52;;;;;;;9.93;6.32;;;;;;;12.93;72.27;100480.78;5017196;28;101721;-79
2022/10/23 06:06:21;;;;;;;8.25;5.93;;;;;;;12.84;72.72;100503.94;5014422;28;101873;-80
2022/10/23 06:08:48;;;;;;;8.20;5.82;;;;;;;12.61;73.22;100467.97;5011731;28;98220;-79
2022/10/23 06:11:15;;;;;;;9.27;6.38;;;;;;;12.85;73.25;100492.47;5031142;27;97241;-80
2022/10/23 06:13:47;;;;;;;7.90;6.20;;;;;;;12.84;73.26;100487.28;5029587;27;101055;-84
2022/10/23 06:16:23;;;;;;;11.32;6.40;;;;;;;12.84;72.21;100477.59;5031166;27;99638;-84
2022/10/23 06:18:49;;;;;;;11.45;6.40;;;;;;;12.94;72.90;100504.41;5030675;27;97282;-84
2022/10/23 06:21:17;;;;;;;16.30;10.70;;;;;;;12.94;72.79;100500.91;5013782;28;97280;-84
2022/10/23 06:23:45;;;;;;;9.68;6.60;;;;;;;12.99;72.50;100506.88;5011037;28;100706;-84
2022/10/23 06:26:29;;;;;;;9.70;6.35;;;;;;;13.01;72.56;100523.47;5011870;28;97182;-87
2022/10/23 06:29:09;;;;;;;12.65;8.25;;;;;;;13.05;72.79;100519.78;5015382;28;96789;-82
2022/10/23 06:31:36;;;;;;;12.27;8.90;;;;;;;13.08;73.09;100511.75;5029194;28;97314;-82
2022/10/23 06:34:04;;;;;;;13.82;8.93;;;;;;;13.13;72.59;100510.66;5010206;28;101672;-82
2022/10/23 06:36:30;;;;;;;15.15;9.27;;;;;;;13.24;72.28;100517.25;4995560;28;101806;-87
2022/10/23 06:39:16;;;;;;;13.60;9.38;;;;;;;13.38;72.01;100524.59;5030740;28;96840;-86
2022/10/23 06:42:08;;;;;;;12.00;8.48;;;;;;;13.35;71.74;100515.91;5026207;27;99625;-86
2022/10/23 06:44:59;;;;;;;8.35;6.78;;;;;;;13.29;72.10;100505.63;5014046;28;99243;-87
2022/10/23 06:47:51;;;;;;;9.07;6.28;;;;;;;13.44;71.02;100519.94;5014846;28;99285;-86
2022/10/23 06:50:39;;;;;;;11.57;5.97;;;;;;;13.35;71.64;100515.91;5008401;28;96946;-86
2022/10/23 06:53:11;;;;;;;12.75;7.43;;;;;;;13.42;71.82;100534.13;5029812;27;97657;-86
2022/10/23 06:55:40;;;;;;;12.38;6.90;;;;;;;13.44;71.60;100532.25;5013812;28;100853;-86
2022/10/23 06:58:09;;;;;;;16.45;10.65;;;;;;;13.56;71.12;100531.75;5011290;28;100335;-87
2022/10/23 07:00:38;;;;;;;15.23;10.02;;;;;;;13.70;71.37;100539.03;5024036;28;96863;-86
2022/10/23 07:03:05;;;;;;;26.83;17.10;;;;;;;13.59;70.67;100495.53;5013992;28;97579;-87
2022/10/23 07:05:32;;;;;;;14.20;9.38;;;;;;;14.06;70.27;100528.66;5011451;28;101560;-86
2022/10/23 07:07:59;;;;;;;25.13;14.27;;;;;;;14.24;69.75;100533.09;5030668;27;101270;-85
2022/10/23 07:10:29;;;;;;;25.60;13.87;;;;;;;14.55;69.60;100530.84;5013462;28;97249;-87
2022/10/23 07:12:59;;;;;;;11.32;8.88;;;;;;;14.77;68.80;100533.31;5029374;28;96824;-86
2022/10/23 07:15:44;;;;;;;9.75;6.90;;;;;;;14.92;67.96;100527.28;5011573;28;97172;-86
2022/10/23 07:18:15;;;;;;;10.70;7.85;;;;;;;15.20;67.82;100523.28;5014457;28;101147;-87
2022/10/23 07:21:13;;;;;;;10.85;6.25;;;;;;;15.55;66.47;100513.56;5007443;27;98137;-86
2022/10/23 07:23:39;;;;;;;13.68;8.30;;;;;;;15.70;66.09;100510.16;5035804;27;96983;-87
2022/10/23 07:26:14;;;;;;;85.70;39.40;;;;;;;15.81;65.72;100510.44;5031798;27;100891;-86
2022/10/23 07:28:41;;;;;;;51.20;24.27;;;;;;;15.88;65.63;100503.03;5013299;28;101762;-86
2022/10/23 07:31:07;;;;;;;34.83;17.42;;;;;;;16.19;65.06;100514.63;4992704;28;97431;-86
2022/10/23 07:34:11;;;;;;;15.65;9.98;;;;;;;16.47;63.95;100514.84;5029553;28;96944;-87
2022/10/23 07:36:38;;;;;;;23.77;12.32;;;;;;;16.59;63.53;100518.59;5011420;28;101831;-84
2022/10/23 07:39:04;;;;;;;18.55;10.88;;;;;;;16.59;64.01;100517.75;5020649;28;98037;-82
2022/10/23 07:41:30;;;;;;;16.13;9.52;;;;;;;16.72;63.72;100519.59;5008504;28;96834;-82
2022/10/23 07:43:56;;;;;;;15.32;11.13;;;;;;;16.87;63.50;100502.03;5030184;28;96946;-82
2022/10/23 07:46:22;;;;;;;13.95;8.45;;;;;;;17.16;62.67;100521.56;5023825;28;101094;-80
2022/10/23 07:48:48;;;;;;;12.18;7.35;;;;;;;17.29;63.24;100515.53;5026959;27;101859;-82
2022/10/23 07:51:15;;;;;;;10.50;6.70;;;;;;;17.26;62.32;100507.75;5041050;27;97009;-84
2022/10/23 07:53:46;;;;;;;6.43;5.78;;;;;;;17.23;62.08;100511.44;5030946;27;97700;-83
2022/10/23 07:56:30;;;;;;;10.25;5.65;;;;;;;17.36;62.12;100507.09;5029510;28;98451;-83
2022/10/23 07:59:14;;;;;;;9.98;5.53;;;;;;;17.31;61.64;100514.50;5027621;28;97226;-85
2022/10/23 08:01:45;;;;;;;8.50;5.25;;;;;;;17.28;62.20;100514.69;5017188;28;98807;-83
2022/10/23 08:04:11;;;;;;;8.02;5.22;;;;;;;17.16;62.10;100494.16;5045701;27;97454;-85
2022/10/23 08:06:46;;;;;;;7.32;5.35;;;;;;;17.33;62.34;100525.00;4997662;28;102092;-85
2022/10/23 08:09:12;;;;;;;6.68;4.57;;;;;;;17.34;62.49;100524.91;5013289;27;101720;-85
2022/10/23 08:11:41;;;;;;;9.50;5.97;;;;;;;17.35;62.61;100534.59;5033095;28;96664;-85
2022/10/23 08:14:08;;;;;;;15.98;12.52;;;;;;;17.09;62.76;100514.03;5050907;27;96852;-83
2022/10/23 08:16:36;;;;;;;8.90;7.75;;;;;;;17.18;63.14;100532.06;5015615;28;100581;-86
2022/10/23 08:19:03;;;;;;;7.35;6.13;;;;;;;17.19;63.20;100526.69;5016124;28;97304;-85
2022/10/23 08:21:29;;;;;;;10.82;6.60;;;;;;;17.51;62.56;100523.94;5031746;27;97518;-84
2022/10/23 08:23:57;;;;;;;6.55;5.68;;;;;;;17.99;61.50;100535.19;5035662;27;98084;-83
2022/10/23 08:26:23;;;;;;;8.15;5.05;;;;;;;18.24;60.79;100513.28;5000218;28;101197;-81
2022/10/23 08:28:49;;;;;;;7.80;5.32;;;;;;;18.39;59.84;100526.56;5025481;27;101895;-80
2022/10/23 08:31:17;;;;;;;7.55;5.57;;;;;;;18.36;60.04;100501.03;5020423;27;96948;-82
2022/10/23 08:33:58;;;;;;;6.35;4.97;;;;;;;18.74;59.19;100517.19;5030604;27;96957;-82
2022/10/23 08:36:25;;;;;;;6.93;5.20;;;;;;;18.76;58.68;100499.34;5015547;28;101765;-87
2022/10/23 08:38:53;;;;;;;6.57;4.90;;;;;;;19.16;58.36;100527.75;5016810;28;101298;-88
2022/10/23 08:41:39;;;;;;;7.35;4.55;;;;;;;19.37;57.96;100525.47;5046059;27;96891;-85
2022/10/23 08:44:39;;;;;;;7.72;5.10;;;;;;;19.52;57.18;100523.56;5016885;28;96858;-86
2022/10/23 08:47:13;;;;;;;5.90;4.53;;;;;;;19.95;56.74;100528.63;5048541;27;101612;-84
2022/10/23 08:49:52;;;;;;;6.78;3.55;;;;;;;20.28;55.81;100528.09;5031834;28;98011;-83
2022/10/23 08:52:26;;;;;;;5.25;3.60;;;;;;;20.58;55.28;100514.38;4987347;28;96858;-83
2022/10/23 08:54:56;;;;;;;3.88;3.13;;;;;;;21.03;54.65;100526.16;5050744;27;98317;-84
2022/10/23 08:57:23;;;;;;;6.57;3.63;;;;;;;21.29;54.36;100534.00;5038280;27;98137;-84
2022/10/23 08:59:57;;;;;;;5.32;3.17;;;;;;;21.66;53.54;100533.91;5033613;27;101424;-82
2022/10/23 09:02:28;;;;;;;5.93;3.63;;;;;;;21.97;52.69;100521.69;5021556;27;96698;-83
2022/10/23 09:04:55;;;;;;;5.43;4.00;;;;;;;22.13;52.24;100518.66;5020017;27;97151;-86
2022/10/23 09:07:20;;;;;;;6.35;4.22;;;;;;;22.55;51.26;100537.63;5019405;27;99988;-82
2022/10/23 09:10:01;;;;;;;6.60;4.05;;;;;;;22.82;50.46;100531.84;5050650;27;100804;-83
2022/10/23 09:12:28;;;;;;;6.90;4.10;;;;;;;22.97;49.54;100524.41;5050177;27;96842;-84
2022/10/23 09:15:06;;;;;;;6.68;4.07;;;;;;;23.10;48.61;100532.28;5018782;27;96868;-86
2022/10/23 09:17:34;;;;;;;7.80;4.38;;;;;;;23.10;48.56;100526.94;5034908;27;101211;-83
2022/10/23 09:20:09;;;;;;;10.02;5.13;;;;;;;23.16;48.89;100513.03;5028095;27;97591;-84
2022/10/23 09:22:35;;;;;;;7.40;4.68;;;;;;;23.42;47.93;100509.00;5033907;27;96860;-86
2022/10/23 09:25:00;;;;;;;13.80;5.40;;;;;;;23.27;47.61;100500.44;5046576;27;97405;-86
2022/10/23 09:27:26;;;;;;;6.50;4.53;;;;;;;23.22;47.12;100504.47;5030362;27;98993;-85
2022/10/23 09:29:54;;;;;;;6.72;3.58;;;;;;;23.21;48.02;100519.72;5018812;27;101064;-87
2022/10/23 09:32:35;;;;;;;6.47;3.85;;;;;;;23.34;47.37;100508.78;5035797;27;96825;-89
2022/10/23 09:35:01;;;;;;;3.70;3.33;;;;;;;23.32;47.56;100510.75;5018888;27;96906;-86
2022/10/23 09:37:32;;;;;;;7.75;4.45;;;;;;;23.40;48.17;100513.63;5002782;27;102059;-90
2022/10/23 09:40:27;;;;;;;10.35;6.28;;;;;;;23.03;48.31;100502.47;5018684;27;98029;-88
2022/10/23 09:43:10;;;;;;;8.02;5.45;;;;;;;22.54;49.65;100509.16;5027612;27;97521;-89
2022/10/23 09:45:37;;;;;;;9.43;6.57;;;;;;;22.46;49.95;100515.16;5012911;27;96761;-88
2022/10/23 09:48:14;;;;;;;6.03;4.25;;;;;;;22.20;50.08;100525.25;5023357;27;100128;-87
2022/10/23 09:50:57;;;;;;;4.93;4.32;;;;;;;22.22;50.22;100512.59;5059502;27;98379;-89
2022/10/23 09:53:26;;;;;;;5.70;3.95;;;;;;;22.63;49.66;100523.63;5019696;27;97376;-90
2022/10/23 09:55:53;;;;;;;7.00;4.05;;;;;;;22.77;49.29;100512.63;5036769;27;96882;-88
2022/10/23 09:58:55;;;;;;;6.70;4.18;;;;;;;22.76;49.47;100505.59;5020050;27;101134;-87
2022/10/23 10:01:27;;;;;;;9.00;4.55;;;;;;;22.81;50.18;100495.38;5009123;28;97577;-86
2022/10/23 10:03:58;;;;;;;6.47;4.13;;;;;;;22.53;50.50;100505.63;5024602;28;96784;-85
2022/10/23 10:06:28;;;;;;;5.80;4.20;;;;;;;22.15;50.72;100503.34;5015002;27;96741;-85
2022/10/23 10:08:57;;;;;;;6.75;3.47;;;;;;;22.01;51.41;100503.59;5053803;27;101881;-86
2022/10/23 10:11:36;;;;;;;4.55;3.25;;;;;;;21.76;51.83;100489.50;5031624;27;100276;-88
2022/10/23 10:14:35;;;;;;;4.28;3.15;;;;;;;21.65;52.86;100510.84;5018594;27;97033;-88
2022/10/23 10:17:03;;;;;;;5.05;3.10;;;;;;;21.40;52.98;100490.50;5033144;27;96788;-88
2022/10/23 10:19:50;;;;;;;4.85;3.42;;;;;;;21.20;52.67;100510.69;5036458;27;98564;-85
2022/10/23 10:22:41;;;;;;;4.80;3.00;;;;;;;20.77;53.17;100496.06;5035882;27;101212;-89
2022/10/23 10:25:12;;;;;;;3.78;2.95;;;;;;;20.79;53.95;100499.47;5019730;27;96761;-88
2022/10/23 10:27:38;;;;;;;;;;;;;;;20.54;54.43;100497.75;5037749;27;96771;-90
2022/10/23 10:30:17;;;;;;;5.75;3.22;;;;;;;20.47;54.32;100496.47;5069972;27;97505;-91
2022/10/23 10:33:08;;;;;;;5.15;2.90;;;;;;;20.32;54.18;100489.56;5039431;27;101435;-88
2022/10/23 10:35:44;;;;;;;4.18;2.90;;;;;;;20.16;54.44;100486.28;5036536;27;96946;-90
2022/10/23 10:38:29;;;;;;;5.40;3.05;;;;;;;20.12;54.54;100493.66;5014608;27;96842;-90
2022/10/23 10:41:27;;;;;;;7.53;3.10;;;;;;;19.93;55.17;100477.31;5035148;27;100431;-87
2022/10/23 10:44:11;;;;;;;5.70;3.08;;;;;;;19.96;55.27;100479.75;5008055;27;101629;-87
2022/10/23 10:46:56;;;;;;;7.53;4.28;;;;;;;20.04;54.90;100469.38;5018084;27;97141;-87
2022/10/23 10:49:32;;;;;;;4.78;2.63;;;;;;;20.03;55.53;100475.66;5018523;27;96939;-87
2022/10/23 10:52:25;;;;;;;4.60;3.00;;;;;;;20.06;55.41;100468.31;5034481;27;101729;-87
2022/10/23 10:55:37;;;;;;;7.18;2.90;;;;;;;20.19;55.25;100468.31;5053557;27;98366;-87
2022/10/23 10:58:16;;;;;;;4.78;3.10;;;;;;;20.10;55.14;100460.94;5014454;27;96959;-88
2022/10/23 11:00:42;;;;;;;5.13;3.45;;;;;;;19.98;55.81;100449.34;5035137;27;98611;-87
2022/10/23 11:03:32;;;;;;;6.32;3.45;;;;;;;20.16;55.66;100457.88;5021220;27;98167;-87
2022/10/23 11:05:59;;;;;;;4.25;3.13;;;;;;;20.05;55.84;100445.31;5033558;27;97247;-87
2022/10/23 11:08:34;;;;;;;4.88;3.13;;;;;;;19.83;56.42;100439.78;5035982;27;96868;-86
2022/10/23 11:11:10;;;;;;;3.80;3.00;;;;;;;19.74;56.17;100438.63;5047720;27;96872;-86
2022/10/23 11:13:39;;;;;;;4.18;3.35;;;;;;;19.70;56.62;100439.81;5001025;27;100565;-86
2022/10/23 11:16:12;;;;;;;6.35;3.30;;;;;;;19.55;57.35;100430.22;5052200;27;97282;-87
2022/10/23 11:18:41;;;;;;;7.72;3.45;;;;;;;19.53;57.26;100427.63;5013830;27;97396;-88
2022/10/23 11:21:40;;;;;;;5.40;2.65;;;;;;;19.58;57.55;100428.19;5034208;27;97071;-82
2022/10/23 11:24:31;;;;;;;6.65;3.85;;;;;;;19.67;58.08;100437.38;5030809;27;97761;-83
2022/10/23 11:27:22;;;;;;;5.22;3.72;;;;;;;19.64;58.08;100419.75;5029124;27;98136;-82
2022/10/23 11:30:09;;;;;;;5.85;4.03;;;;;;;19.69;58.21;100430.09;5005240;28;96802;-82
2022/10/23 11:33:25;;;;;;;5.57;3.42;;;;;;;19.73;58.16;100436.09;5052734;27;96755;-82
2022/10/23 11:36:13;;;;;;;6.22;4.28;;;;;;;19.67;58.23;100434.69;4981705;27;99979;-83
2022/10/23 11:38:40;;;;;;;6.07;4.05;;;;;;;19.68;57.99;100433.72;5017333;27;101485;-82
2022/10/23 11:41:27;;;;;;;5.78;4.15;;;;;;;19.68;58.44;100442.56;5015209;27;96847;-80
2022/10/23 11:43:56;;;;;;;6.40;4.28;;;;;;;19.71;57.92;100435.34;5017258;28;96861;-75
2022/10/23 11:46:21;;;;;;;8.40;4.13;;;;;;;19.73;58.95;100428.94;5032329;27;101161;-79